Time;durP1;ratioP1;P1;durP2;ratioP2;P2;SDS_P1;SDS_P2;PMS_P1;PMS_P2;Temp;Humidity;BMP_temperature;BMP_pressure;BME280_temperature;BME280_humidity;BME280_pressure;Samples;Min_cycle;Max_cycle;Signal;HPM_P1;HPM_P2
2022/12/31 00:01:31;;;;;;;19.55;14.93;;;5.70;99.90;;;;;;5072867;28;20027;-54
2022/12/31 00:03:57;;;;;;;16.95;14.13;;;5.80;99.90;;;;;;5073032;28;20103;-55
2022/12/31 00:06:30;;;;;;;18.25;15.50;;;5.90;99.90;;;;;;5072925;28;20418;-53
2022/12/31 00:08:57;;;;;;;19.25;15.48;;;5.80;99.90;;;;;;5072972;28;20032;-50
2022/12/31 00:11:25;;;;;;;22.02;14.80;;;5.90;99.90;;;;;;5072748;28;20028;-53
2022/12/31 00:13:51;;;;;;;17.67;14.38;;;5.80;99.90;;;;;;5072726;28;20055;-51
2022/12/31 00:16:22;;;;;;;19.85;15.02;;;5.80;99.90;;;;;;5072890;28;20024;-54
2022/12/31 00:18:50;;;;;;;22.52;15.32;;;5.90;99.90;;;;;;5072784;28;20025;-54
2022/12/31 00:21:17;;;;;;;21.60;16.85;;;5.90;99.90;;;;;;5072703;28;20024;-51
2022/12/31 00:23:44;;;;;;;20.30;16.10;;;6.00;99.90;;;;;;5072918;28;20107;-52
2022/12/31 00:26:13;;;;;;;24.02;16.45;;;5.90;99.90;;;;;;5072665;28;20032;-56
2022/12/31 00:28:39;;;;;;;21.67;16.58;;;5.90;99.90;;;;;;5072593;28;20020;-50
2022/12/31 00:31:16;;;;;;;22.33;15.25;;;5.90;99.90;;;;;;5072668;28;20028;-51
2022/12/31 00:33:43;;;;;;;20.38;17.10;;;5.90;99.90;;;;;;5072627;28;20363;-54
2022/12/31 00:36:20;;;;;;;19.40;15.60;;;5.80;99.90;;;;;;5072735;28;20017;-54
2022/12/31 00:38:47;;;;;;;22.08;16.35;;;5.80;99.90;;;;;;5052430;28;20017;-49
2022/12/31 00:41:14;;;;;;;18.75;15.75;;;5.90;99.90;;;;;;5052494;28;20096;-50
2022/12/31 00:43:41;;;;;;;19.10;15.68;;;6.00;99.90;;;;;;5052652;28;20530;-50
2022/12/31 00:46:07;;;;;;;19.13;15.40;;;5.90;99.90;;;;;;5052263;28;20029;-50
2022/12/31 00:48:34;;;;;;;20.38;15.98;;;6.00;99.90;;;;;;5052150;28;20032;-51
2022/12/31 00:51:00;;;;;;;25.48;16.90;;;6.00;99.90;;;;;;5051226;28;20499;-52
2022/12/31 00:53:27;;;;;;;21.80;14.43;;;6.00;99.90;;;;;;5051838;28;20111;-52
2022/12/31 00:56:02;;;;;;;18.35;16.00;;;6.00;99.90;;;;;;5051118;28;20025;-51
2022/12/31 00:58:28;;;;;;;19.20;15.70;;;6.00;99.90;;;;;;5051632;28;20013;-51
2022/12/31 01:00:54;;;;;;;18.65;16.55;;;6.00;99.90;;;;;;5052171;28;20025;-54
2022/12/31 01:03:20;;;;;;;18.58;15.45;;;6.00;99.90;;;;;;5052015;28;20480;-53
2022/12/31 01:05:45;;;;;;;18.73;15.23;;;6.00;99.90;;;;;;5051853;28;20032;-52
2022/12/31 01:08:11;;;;;;;17.92;14.25;;;6.00;99.90;;;;;;5051907;28;20033;-51
2022/12/31 01:13:21;;;;;;;17.13;14.20;;;6.00;99.90;;;;;;5051852;28;20614;-53
2022/12/31 01:15:47;;;;;;;15.98;13.68;;;6.10;99.90;;;;;;5051769;28;20108;-51
2022/12/31 01:18:12;;;;;;;19.90;15.45;;;6.10;99.90;;;;;;5051803;28;20040;-53
2022/12/31 01:20:41;;;;;;;25.70;14.90;;;6.00;99.90;;;;;;5051502;28;20385;-51
2022/12/31 01:23:08;;;;;;;16.52;14.40;;;6.00;99.90;;;;;;5051537;28;20032;-51
2022/12/31 01:25:35;;;;;;;17.75;14.60;;;6.00;99.90;;;;;;5051442;28;20024;-53
2022/12/31 01:28:01;;;;;;;15.80;14.10;;;6.00;99.90;;;;;;5051737;28;20013;-51
2022/12/31 01:30:26;;;;;;;19.92;14.52;;;6.00;99.90;;;;;;5051406;28;20052;-50
2022/12/31 01:32:52;;;;;;;16.35;14.50;;;6.10;99.90;;;;;;5050182;28;20362;-50
2022/12/31 01:35:18;;;;;;;14.68;12.55;;;6.00;99.90;;;;;;5051444;28;20039;-51
2022/12/31 01:37:43;;;;;;;15.95;12.90;;;6.10;99.90;;;;;;5063178;28;20386;-52
2022/12/31 01:40:09;;;;;;;15.65;12.40;;;6.10;99.90;;;;;;5071295;28;20017;-52
2022/12/31 01:42:35;;;;;;;15.85;12.80;;;6.20;99.90;;;;;;5071406;28;20047;-53
2022/12/31 01:45:01;;;;;;;18.77;13.25;;;6.20;99.90;;;;;;5070075;28;20071;-50
2022/12/31 01:47:38;;;;;;;14.55;11.30;;;6.20;99.90;;;;;;5070891;28;20033;-50
2022/12/31 01:50:26;;;;;;;13.90;11.63;;;6.20;99.90;;;;;;5071389;28;20055;-54
2022/12/31 01:52:58;;;;;;;16.50;11.73;;;6.20;99.90;;;;;;5071083;28;20114;-51
2022/12/31 01:55:30;;;;;;;14.32;11.73;;;6.20;99.90;;;;;;5071119;28;20063;-49
2022/12/31 01:58:10;;;;;;;12.82;10.50;;;6.20;99.90;;;;;;5069897;28;20395;-51
2022/12/31 02:00:35;;;;;;;13.70;10.85;;;6.20;99.90;;;;;;5049910;28;20120;-52
2022/12/31 02:03:02;;;;;;;14.95;10.68;;;6.20;99.90;;;;;;5066375;28;20439;-54
2022/12/31 02:05:40;;;;;;;13.32;11.38;;;6.30;99.90;;;;;;5071064;28;20031;-51
2022/12/31 02:08:06;;;;;;;14.30;11.70;;;6.30;99.90;;;;;;5071005;28;20056;-54
2022/12/31 02:10:32;;;;;;;15.68;11.95;;;6.30;99.90;;;;;;5074087;28;20067;-50
2022/12/31 02:12:58;;;;;;;12.75;10.95;;;6.30;99.90;;;;;;5060212;28;20526;-53
2022/12/31 02:15:44;;;;;;;16.20;11.23;;;6.40;99.90;;;;;;5054836;28;20028;-53
2022/12/31 02:18:34;;;;;;;12.60;10.50;;;6.40;99.90;;;;;;5054501;28;20095;-54
2022/12/31 02:21:12;;;;;;;13.70;11.35;;;6.30;99.90;;;;;;5055022;28;20033;-51
2022/12/31 02:24:05;;;;;;;13.77;10.75;;;6.30;99.90;;;;;;5074545;28;20028;-54
2022/12/31 02:26:40;;;;;;;19.05;11.20;;;6.30;99.90;;;;;;5069390;28;20045;-50
2022/12/31 02:29:31;;;;;;;12.98;11.10;;;6.40;99.90;;;;;;5055946;28;20115;-54
2022/12/31 02:32:04;;;;;;;15.52;11.45;;;6.40;99.90;;;;;;5059578;28;20044;-50
2022/12/31 02:34:36;;;;;;;17.10;11.13;;;6.40;99.90;;;;;;5066024;28;20071;-54
2022/12/31 02:37:06;;;;;;;15.10;10.90;;;6.50;99.90;;;;;;5054772;28;20036;-54
2022/12/31 02:39:34;;;;;;;12.40;9.82;;;6.60;99.90;;;;;;5054006;28;20032;-53
2022/12/31 02:42:00;;;;;;;13.75;11.05;;;6.60;99.90;;;;;;5060147;28;20116;-50
2022/12/31 02:44:31;;;;;;;15.00;11.10;;;6.50;99.90;;;;;;5052576;28;20381;-53
2022/12/31 02:47:18;;;;;;;12.00;10.02;;;6.60;99.90;;;;;;5055131;28;20028;-49
2022/12/31 02:50:12;;;;;;;12.20;10.23;;;6.50;99.90;;;;;;5061389;28;20047;-49
2022/12/31 02:52:53;;;;;;;11.32;9.93;;;6.50;99.90;;;;;;5058624;28;20543;-54
2022/12/31 02:55:46;;;;;;;13.20;10.60;;;6.50;99.90;;;;;;5053626;28;20506;-54
2022/12/31 03:02:12;;;;;;;10.70;9.60;;;6.60;99.90;;;;;;5071661;28;20151;-53
2022/12/31 03:04:30;;;;;;;8.93;6.60;;;6.60;99.90;;;;;;5054468;28;20467;-50
2022/12/31 03:06:40;;;;;;;3.53;3.22;;;7.00;99.90;;;;;;5057930;28;20028;-52
2022/12/31 03:09:12;;;;;;;2.25;2.13;;;8.90;99.90;;;;;;5073757;28;20045;-52
2022/12/31 03:14:22;;;;;;;4.13;2.50;;;9.40;99.90;;;;;;5073907;28;20054;-53
2022/12/31 03:16:48;;;;;;;2.28;2.10;;;9.60;99.90;;;;;;5073456;28;20467;-52
2022/12/31 03:27:26;;;;;;;8.60;3.95;;;9.90;99.90;;;;;;5061916;28;19971;-54
2022/12/31 03:29:51;;;;;;;8.23;4.85;;;9.60;99.90;;;;;;5054997;28;20403;-51
2022/12/31 03:32:17;;;;;;;6.28;4.55;;;9.40;99.90;;;;;;5060585;28;20033;-52
2022/12/31 03:34:43;;;;;;;8.00;6.18;;;9.20;99.90;;;;;;5053730;28;20047;-53
2022/12/31 03:37:08;;;;;;;6.38;5.30;;;9.00;99.90;;;;;;5057078;28;20025;-53
2022/12/31 03:39:34;;;;;;;9.75;5.03;;;8.80;99.90;;;;;;5073356;28;20043;-51
2022/12/31 03:41:59;;;;;;;4.93;4.25;;;8.70;99.90;;;;;;5070821;28;20031;-51
2022/12/31 03:44:25;;;;;;;5.15;4.43;;;8.70;99.90;;;;;;5071726;28;20404;-51
2022/12/31 03:46:51;;;;;;;6.00;4.57;;;8.60;99.90;;;;;;5059576;28;20032;-51
2022/12/31 03:49:16;;;;;;;7.30;4.72;;;8.50;99.90;;;;;;5059338;28;20029;-52
2022/12/31 03:51:42;;;;;;;4.63;4.20;;;8.50;99.90;;;;;;5053532;28;20037;-52
2022/12/31 03:54:07;;;;;;;5.38;4.18;;;8.50;99.90;;;;;;5056085;28;20028;-55
2022/12/31 03:56:33;;;;;;;5.15;4.65;;;8.50;99.90;;;;;;5062156;28;20082;-55
2022/12/31 03:58:59;;;;;;;6.07;5.28;;;8.40;99.90;;;;;;5053394;28;20032;-52
2022/12/31 04:01:25;;;;;;;7.88;5.75;;;8.30;99.90;;;;;;5070369;28;20027;-54
2022/12/31 04:03:50;;;;;;;5.43;4.93;;;8.30;99.90;;;;;;5073022;28;20029;-50
2022/12/31 04:06:16;;;;;;;5.25;4.82;;;8.20;99.90;;;;;;5073090;28;20111;-51
2022/12/31 04:08:42;;;;;;;4.85;4.43;;;8.10;99.90;;;;;;5073262;28;20373;-53
2022/12/31 04:11:08;;;;;;;6.40;5.00;;;8.10;99.90;;;;;;5072812;28;20048;-54
2022/12/31 04:13:33;;;;;;;4.88;4.47;;;8.00;99.90;;;;;;5072662;28;20025;-51
2022/12/31 04:15:59;;;;;;;8.73;5.70;;;8.00;99.90;;;;;;5073124;28;20403;-54
2022/12/31 04:18:24;;;;;;;5.25;4.75;;;7.90;99.90;;;;;;5072702;28;20497;-51
2022/12/31 04:20:50;;;;;;;5.47;4.93;;;7.90;99.90;;;;;;5072731;28;20028;-52
2022/12/31 04:23:16;;;;;;;6.15;4.80;;;7.90;99.90;;;;;;5072667;28;20493;-54
2022/12/31 04:25:41;;;;;;;4.93;4.43;;;7.90;99.90;;;;;;5072961;28;20105;-53
2022/12/31 04:28:07;;;;;;;5.30;4.80;;;7.90;99.90;;;;;;5072691;28;20033;-51
2022/12/31 04:30:33;;;;;;;6.35;4.82;;;7.90;99.90;;;;;;5072426;28;20028;-52
2022/12/31 04:32:58;;;;;;;6.50;5.10;;;7.90;99.90;;;;;;5072248;28;20036;-54
2022/12/31 04:35:24;;;;;;;4.40;4.03;;;7.80;99.90;;;;;;5072349;28;20028;-53
2022/12/31 04:37:49;;;;;;;5.13;4.30;;;7.80;99.90;;;;;;5072543;28;20082;-52
2022/12/31 04:40:15;;;;;;;5.30;4.80;;;7.70;99.90;;;;;;5072605;28;20036;-52
2022/12/31 04:42:41;;;;;;;5.38;4.50;;;7.60;99.90;;;;;;5072300;28;20086;-50
2022/12/31 04:45:07;;;;;;;5.75;4.50;;;7.60;99.90;;;;;;5072379;28;20029;-49
2022/12/31 04:47:32;;;;;;;4.43;3.80;;;7.60;99.90;;;;;;5072183;28;20055;-56
2022/12/31 04:49:58;;;;;;;5.03;3.83;;;7.60;99.90;;;;;;5056293;28;20488;-52
2022/12/31 04:52:24;;;;;;;5.38;4.10;;;7.50;99.90;;;;;;5051903;28;20407;-51
2022/12/31 04:54:49;;;;;;;4.55;4.15;;;7.40;99.90;;;;;;5052280;28;20033;-52
2022/12/31 04:57:15;;;;;;;4.93;3.72;;;7.40;99.90;;;;;;5063840;28;20028;-50
2022/12/31 04:59:41;;;;;;;6.50;3.60;;;7.40;99.90;;;;;;5072010;28;20044;-51
2022/12/31 05:02:06;;;;;;;5.32;4.20;;;7.30;99.90;;;;;;5072208;28;20025;-52
2022/12/31 05:04:32;;;;;;;4.70;3.60;;;7.30;99.90;;;;;;5069855;28;20024;-51
2022/12/31 05:06:57;;;;;;;4.28;3.88;;;7.30;99.90;;;;;;5071903;28;20024;-53
2022/12/31 05:09:26;;;;;;;7.00;4.43;;;7.40;99.90;;;;;;5069988;28;20036;-52
2022/12/31 05:11:52;;;;;;;4.47;4.07;;;7.30;99.90;;;;;;5071662;28;20128;-54
2022/12/31 05:14:17;;;;;;;5.07;4.07;;;7.40;99.90;;;;;;5071279;28;20107;-51
2022/12/31 05:16:43;;;;;;;3.33;3.05;;;7.40;99.90;;;;;;5070336;28;20035;-51
2022/12/31 05:19:09;;;;;;;3.10;2.80;;;7.50;99.90;;;;;;5070272;28;20375;-51
2022/12/31 05:21:35;;;;;;;3.17;2.78;;;7.70;99.90;;;;;;5071636;28;20021;-50
2022/12/31 05:24:00;;;;;;;6.00;3.75;;;8.00;99.90;;;;;;5066100;28;20075;-53
2022/12/31 05:26:26;;;;;;;6.68;3.30;;;8.00;99.90;;;;;;5051565;28;20029;-53
2022/12/31 05:28:52;;;;;;;6.80;3.70;;;8.10;99.90;;;;;;5051683;28;20035;-54
2022/12/31 05:31:17;;;;;;;6.93;3.78;;;8.00;99.90;;;;;;5051390;28;20044;-51
2022/12/31 05:33:43;;;;;;;4.55;4.07;;;7.90;99.90;;;;;;5057869;28;20106;-49
2022/12/31 05:36:08;;;;;;;7.63;3.80;;;7.90;99.90;;;;;;5066589;28;20126;-52
2022/12/31 05:38:36;;;;;;;6.25;4.18;;;7.90;99.90;;;;;;5051308;28;20063;-53
2022/12/31 05:41:04;;;;;;;4.30;3.90;;;7.80;99.90;;;;;;5051476;28;20037;-50
2022/12/31 05:43:30;;;;;;;7.05;3.92;;;7.80;99.90;;;;;;5050518;28;20043;-52
2022/12/31 05:45:56;;;;;;;4.75;3.75;;;7.70;99.90;;;;;;5070327;28;20036;-50
2022/12/31 05:48:22;;;;;;;8.15;4.00;;;7.70;99.90;;;;;;5070923;28;20017;-50
2022/12/31 05:50:48;;;;;;;5.97;4.57;;;7.60;99.90;;;;;;5070428;28;20166;-52
2022/12/31 05:53:14;;;;;;;6.60;3.83;;;7.60;99.90;;;;;;5069558;28;20070;-53
2022/12/31 05:55:39;;;;;;;5.93;4.40;;;7.60;99.90;;;;;;5071084;28;20016;-50
2022/12/31 05:58:05;;;;;;;4.65;3.95;;;7.50;99.90;;;;;;5071351;28;20353;-51
2022/12/31 06:00:31;;;;;;;4.57;4.18;;;7.50;99.90;;;;;;5059628;28;20029;-51
2022/12/31 06:02:56;;;;;;;7.28;4.50;;;7.40;99.90;;;;;;5070966;28;20086;-54
2022/12/31 06:05:22;;;;;;;7.70;3.83;;;7.30;99.90;;;;;;5070311;28;20025;-50
2022/12/31 06:07:47;;;;;;;6.55;4.13;;;7.20;99.90;;;;;;5053535;28;20041;-51
2022/12/31 06:10:13;;;;;;;5.72;4.60;;;7.10;99.90;;;;;;5050944;28;20052;-54
2022/12/31 06:12:39;;;;;;;4.78;3.97;;;7.00;99.90;;;;;;5050999;28;20511;-51
2022/12/31 06:15:05;;;;;;;6.78;4.13;;;6.80;99.90;;;;;;5069630;28;20043;-52
2022/12/31 06:17:31;;;;;;;7.80;3.80;;;6.70;99.90;;;;;;5069653;28;20043;-52
2022/12/31 06:19:58;;;;;;;11.40;5.28;;;6.50;99.90;;;;;;5069488;28;20341;-55
2022/12/31 06:22:23;;;;;;;5.63;4.85;;;6.40;99.90;;;;;;5070794;28;20103;-51
2022/12/31 06:24:49;;;;;;;66.43;51.03;;;6.30;99.90;;;;;;5056148;28;20544;-52
2022/12/31 06:27:15;;;;;;;9.57;7.95;;;6.20;99.90;;;;;;5070892;28;20409;-52
2022/12/31 06:29:40;;;;;;;25.25;18.10;;;6.10;99.90;;;;;;5070662;28;20363;-52
2022/12/31 06:32:06;;;;;;;64.18;52.65;;;6.10;99.90;;;;;;5070565;28;20442;-51
2022/12/31 06:34:32;;;;;;;26.20;21.88;;;6.20;99.90;;;;;;5069079;28;20032;-50
2022/12/31 06:36:58;;;;;;;10.43;9.30;;;6.20;99.90;;;;;;5070607;28;20024;-53
2022/12/31 06:39:24;;;;;;;13.35;9.50;;;6.30;99.90;;;;;;5070370;28;20048;-51
2022/12/31 06:41:49;;;;;;;8.45;7.28;;;6.30;99.90;;;;;;5070703;28;20033;-53
2022/12/31 06:44:15;;;;;;;12.43;11.23;;;6.30;99.90;;;;;;5070314;28;20095;-56
2022/12/31 06:46:41;;;;;;;18.25;16.35;;;6.40;99.90;;;;;;5070657;28;20434;-52
2022/12/31 06:49:06;;;;;;;10.40;9.18;;;6.40;99.90;;;;;;5070462;28;20035;-55
2022/12/31 06:51:32;;;;;;;12.85;8.80;;;6.50;99.90;;;;;;5070467;28;20087;-51
2022/12/31 06:53:58;;;;;;;16.58;7.85;;;6.50;99.90;;;;;;5053680;28;20036;-49
2022/12/31 06:56:27;;;;;;;10.00;8.13;;;6.50;99.90;;;;;;5053486;28;20063;-48
2022/12/31 06:58:54;;;;;;;9.75;7.72;;;6.60;99.90;;;;;;5053756;28;20025;-50
2022/12/31 07:01:23;;;;;;;8.85;6.93;;;6.60;99.90;;;;;;5053900;28;20533;-51
2022/12/31 07:04:07;;;;;;;10.52;6.30;;;6.70;99.90;;;;;;5054284;28;20452;-54
2022/12/31 07:06:35;;;;;;;11.32;7.53;;;6.80;99.90;;;;;;5053408;28;20061;-51
2022/12/31 07:09:23;;;;;;;8.80;6.00;;;6.90;99.90;;;;;;5053922;28;20029;-50
2022/12/31 07:12:08;;;;;;;9.25;7.82;;;6.90;99.90;;;;;;5053358;28;20551;-52
2022/12/31 07:14:51;;;;;;;9.70;7.18;;;7.10;99.90;;;;;;5058139;28;20032;-48
2022/12/31 07:17:17;;;;;;;8.40;6.80;;;7.10;99.90;;;;;;5072516;28;20541;-52
2022/12/31 07:19:53;;;;;;;10.70;7.63;;;7.20;99.90;;;;;;5073481;28;20028;-51
2022/12/31 07:22:19;;;;;;;144.15;74.47;;;7.30;99.90;;;;;;5071669;28;20676;-54
2022/12/31 07:24:45;;;;;;;249.05;134.35;;;7.40;99.90;;;;;;5056296;28;20032;-51
2022/12/31 07:27:36;;;;;;;106.28;63.75;;;7.50;99.90;;;;;;5053568;28;20132;-53
2022/12/31 07:30:08;;;;;;;57.75;27.52;;;7.60;99.90;;;;;;5053661;28;20039;-52
2022/12/31 07:33:09;;;;;;;52.60;26.70;;;7.60;99.90;;;;;;5057154;28;20199;-49
2022/12/31 07:36:06;;;;;;;118.50;62.53;;;7.60;99.90;;;;;;5050704;28;20037;-53
2022/12/31 07:38:51;;;;;;;89.55;57.38;;;7.70;99.90;;;;;;5053175;28;20021;-53
2022/12/31 07:41:33;;;;;;;28.75;17.42;;;7.70;99.90;;;;;;5053273;28;20434;-52
2022/12/31 07:44:08;;;;;;;41.25;24.27;;;7.70;99.90;;;;;;5068089;28;20043;-54
2022/12/31 07:46:58;;;;;;;48.05;29.08;;;7.80;99.90;;;;;;5060793;28;20094;-50
2022/12/31 07:49:25;;;;;;;38.97;24.60;;;7.80;99.90;;;;;;5064985;28;20380;-55
2022/12/31 07:51:52;;;;;;;35.65;23.75;;;7.80;99.90;;;;;;5063591;28;20504;-52
2022/12/31 07:54:18;;;;;;;24.25;15.60;;;7.90;99.90;;;;;;5070529;28;20040;-53
2022/12/31 07:56:44;;;;;;;26.85;16.08;;;7.90;99.90;;;;;;5076558;28;20385;-52
2022/12/31 07:59:28;;;;;;;18.25;10.27;;;7.90;99.90;;;;;;5091980;28;20024;-52
2022/12/31 08:02:00;;;;;;;8.55;5.25;;;8.00;99.90;;;;;;5066409;28;20456;-53
2022/12/31 08:04:32;;;;;;;33.40;17.45;;;8.10;99.90;;;;;;5072022;28;20035;-49
2022/12/31 08:07:07;;;;;;;17.00;9.80;;;8.20;99.90;;;;;;5066022;28;20060;-48
2022/12/31 08:10:08;;;;;;;11.70;7.15;;;8.30;99.90;;;;;;5071051;28;20040;-50
2022/12/31 08:12:36;;;;;;;15.10;4.80;;;8.40;99.90;;;;;;5079634;28;20044;-49
2022/12/31 08:15:11;;;;;;;7.85;4.90;;;8.50;99.90;;;;;;5071669;28;20116;-49
2022/12/31 08:17:36;;;;;;;10.68;4.15;;;8.60;99.90;;;;;;5079761;28;20027;-49
2022/12/31 08:20:04;;;;;;;20.08;5.55;;;8.60;99.90;;;;;;5080477;28;20032;-49
2022/12/31 08:23:07;;;;;;;17.65;5.32;;;8.60;99.90;;;;;;5072150;28;20029;-52
2022/12/31 08:26:12;;;;;;;12.80;5.65;;;8.70;99.90;;;;;;5071714;28;20036;-51
2022/12/31 08:28:38;;;;;;;16.13;6.80;;;8.70;99.90;;;;;;5072071;28;20506;-51
2022/12/31 08:31:10;;;;;;;18.23;7.82;;;8.70;99.90;;;;;;5089510;28;20062;-53
2022/12/31 08:34:16;;;;;;;20.27;9.63;;;8.70;99.90;;;;;;5091955;28;20130;-55
2022/12/31 08:36:53;;;;;;;20.65;12.70;;;8.80;99.90;;;;;;5092433;28;20073;-52
2022/12/31 08:39:28;;;;;;;11.90;8.35;;;8.90;99.90;;;;;;5091774;28;20396;-50
2022/12/31 08:41:56;;;;;;;10.85;8.32;;;9.10;99.90;;;;;;5091754;28;20687;-51
2022/12/31 08:44:58;;;;;;;16.48;10.55;;;9.00;99.90;;;;;;5090327;28;20032;-53
2022/12/31 08:47:30;;;;;;;20.10;9.80;;;9.10;99.90;;;;;;5090601;28;20368;-51
2022/12/31 08:49:56;;;;;;;19.30;10.35;;;9.20;99.90;;;;;;5090352;28;20074;-52
2022/12/31 08:52:24;;;;;;;18.42;9.25;;;9.30;99.90;;;;;;5090878;28;20036;-52
2022/12/31 08:54:50;;;;;;;17.92;9.90;;;9.30;99.90;;;;;;5075446;28;20039;-52
2022/12/31 08:57:27;;;;;;;12.93;8.40;;;9.40;99.90;;;;;;5053239;28;20025;-52
2022/12/31 09:00:10;;;;;;;13.65;8.45;;;9.60;99.90;;;;;;5071656;28;20040;-55
2022/12/31 09:02:55;;;;;;;10.63;8.93;;;9.70;99.90;;;;;;5072093;28;20491;-53
2022/12/31 09:05:28;;;;;;;17.73;13.85;;;9.70;99.90;;;;;;5071789;28;20077;-51
2022/12/31 09:07:53;;;;;;;24.15;10.05;;;9.80;99.90;;;;;;5058408;28;20035;-55
2022/12/31 09:10:38;;;;;;;18.48;10.07;;;9.90;99.90;;;;;;5051553;28;20504;-53
2022/12/31 09:13:18;;;;;;;18.88;11.25;;;10.00;99.90;;;;;;5055790;28;20104;-52
2022/12/31 09:15:51;;;;;;;24.88;10.73;;;10.10;99.90;;;;;;5071892;28;20615;-53
2022/12/31 09:18:17;;;;;;;13.32;9.27;;;10.30;99.90;;;;;;5070933;28;20083;-51
2022/12/31 09:20:43;;;;;;;7.65;6.07;;;10.30;99.90;;;;;;5071883;28;20111;-53
2022/12/31 09:23:10;;;;;;;14.00;5.82;;;10.40;99.90;;;;;;5069877;28;20029;-55
2022/12/31 09:25:44;;;;;;;15.07;7.38;;;10.50;99.90;;;;;;5059886;28;20029;-56
2022/12/31 09:28:19;;;;;;;8.60;6.93;;;10.60;99.90;;;;;;5074194;28;20108;-50
2022/12/31 09:31:01;;;;;;;11.52;7.22;;;10.80;99.90;;;;;;5085894;28;20482;-52
2022/12/31 09:34:03;;;;;;;20.73;7.38;;;11.20;99.90;;;;;;5070536;28;20082;-53
2022/12/31 09:36:40;;;;;;;8.57;6.47;;;11.50;99.90;;;;;;5069378;28;20039;-52
2022/12/31 09:39:30;;;;;;;12.75;7.53;;;11.70;99.90;;;;;;5070929;28;20048;-52
2022/12/31 09:42:20;;;;;;;11.18;6.55;;;11.50;99.90;;;;;;5070818;28;20034;-51
2022/12/31 09:45:13;;;;;;;25.67;7.38;;;11.40;99.90;;;;;;5067461;28;20028;-48
2022/12/31 09:48:12;;;;;;;10.98;7.70;;;11.30;99.90;;;;;;5069407;28;20484;-56
2022/12/31 09:51:22;;;;;;;10.98;6.88;;;11.30;99.90;;;;;;5070995;28;20032;-52
2022/12/31 09:54:02;;;;;;;11.02;7.25;;;11.50;99.90;;;;;;5069531;28;20060;-56
2022/12/31 09:56:46;;;;;;;9.82;7.25;;;11.60;99.90;;;;;;5070737;28;20032;-56
2022/12/31 09:59:29;;;;;;;13.02;7.55;;;11.70;99.90;;;;;;5066439;28;20096;-54
2022/12/31 10:02:18;;;;;;;13.57;7.10;;;11.70;99.90;;;;;;5049491;28;20116;-52
2022/12/31 10:05:00;;;;;;;12.63;7.00;;;11.90;99.90;;;;;;5065830;28;20064;-53
2022/12/31 10:07:34;;;;;;;10.85;6.10;;;11.90;99.90;;;;;;5070443;28;20036;-53
2022/12/31 10:10:22;;;;;;;9.10;6.35;;;12.10;99.90;;;;;;5070867;28;20045;-53
2022/12/31 10:13:03;;;;;;;11.00;7.20;;;12.20;99.90;;;;;;5071064;28;20024;-54
2022/12/31 10:15:28;;;;;;;10.00;5.53;;;12.30;99.90;;;;;;5083086;28;20043;-51
2022/12/31 10:18:24;;;;;;;7.85;5.00;;;12.50;99.90;;;;;;5070572;28;20029;-51
2022/12/31 10:21:26;;;;;;;6.50;4.90;;;12.70;99.90;;;;;;5084382;28;20032;-57
2022/12/31 10:23:57;;;;;;;7.82;6.22;;;12.80;99.90;;;;;;5090515;28;20032;-55
2022/12/31 10:26:28;;;;;;;9.05;5.57;;;13.20;99.90;;;;;;5090277;28;20027;-51
2022/12/31 10:29:04;;;;;;;9.75;6.50;;;13.30;99.90;;;;;;5090495;28;20083;-55
2022/12/31 10:31:59;;;;;;;10.55;5.90;;;13.60;99.90;;;;;;5092826;28;20414;-51
2022/12/31 10:34:48;;;;;;;11.23;6.80;;;14.20;99.90;;;;;;5073178;28;20041;-52
2022/12/31 10:37:18;;;;;;;14.38;5.47;;;15.60;99.90;;;;;;5074146;28;20029;-54
2022/12/31 10:40:03;;;;;;;12.60;7.82;;;15.80;99.90;;;;;;5074920;28;20029;-53
2022/12/31 10:42:40;;;;;;;18.80;10.85;;;15.50;99.90;;;;;;5073611;28;20024;-55
2022/12/31 10:45:21;;;;;;;25.55;13.15;;;15.00;99.90;;;;;;5073285;28;20055;-53
2022/12/31 10:48:18;;;;;;;22.10;11.20;;;15.00;99.90;;;;;;5085931;28;20024;-50
2022/12/31 10:51:04;;;;;;;23.70;10.73;;;14.80;99.90;;;;;;5073400;28;20036;-55
2022/12/31 10:53:59;;;;;;;11.32;8.45;;;15.20;99.90;;;;;;5073780;28;20033;-51
2022/12/31 10:56:49;;;;;;;14.65;7.53;;;15.70;99.90;;;;;;5062697;28;20037;-53
2022/12/31 10:59:48;;;;;;;16.80;6.72;;;16.10;99.90;;;;;;5053201;28;20033;-52
2022/12/31 11:02:32;;;;;;;9.60;6.82;;;16.50;99.90;;;;;;5054051;28;20656;-54
2022/12/31 11:05:16;;;;;;;;;;;17.10;99.90;;;;;;5054584;28;20032;-52
2022/12/31 11:08:06;;;;;;;10.50;6.07;;;17.20;99.90;;;;;;5053988;28;20283;-54
2022/12/31 11:10:46;;;;;;;6.22;4.50;;;17.60;97.00;;;;;;5053641;28;20041;-55
2022/12/31 11:13:15;;;;;;;68.18;33.80;;;17.90;95.00;;;;;;5054195;28;20041;-52
2022/12/31 11:15:50;;;;;;;12.30;6.10;;;18.20;95.20;;;;;;5055865;28;20021;-54
2022/12/31 11:18:43;;;;;;;20.00;11.52;;;18.90;94.10;;;;;;5055915;28;22631;-54
2022/12/31 11:21:46;;;;;;;6.95;4.53;;;19.80;93.90;;;;;;5060126;28;20048;-53
2022/12/31 11:24:32;;;;;;;3.35;3.05;;;20.80;90.70;;;;;;5044467;28;20048;-55
2022/12/31 11:27:05;;;;;;;3.20;2.90;;;20.50;87.80;;;;;;5043457;28;20072;-55
2022/12/31 11:29:56;;;;;;;3.92;2.85;;;19.90;88.90;;;;;;5062543;28;20111;-50
2022/12/31 11:32:38;;;;;;;4.18;3.00;;;19.50;90.70;;;;;;5062305;28;20046;-54
2022/12/31 11:35:25;;;;;;;2.35;2.10;;;19.00;89.70;;;;;;5055125;28;20075;-52
2022/12/31 11:38:16;;;;;;;6.05;2.13;;;18.70;93.10;;;;;;5061079;28;20666;-49
2022/12/31 11:40:54;;;;;;;4.82;3.28;;;19.00;91.20;;;;;;5059895;28;20034;-53
2022/12/31 11:44:00;;;;;;;3.40;2.10;;;19.30;91.50;;;;;;5051847;28;20071;-50
2022/12/31 11:46:34;;;;;;;6.13;2.90;;;19.20;90.20;;;;;;5043915;28;20053;-51
2022/12/31 11:49:22;;;;;;;3.50;2.30;;;19.00;91.40;;;;;;5050502;28;20052;-53
2022/12/31 11:52:04;;;;;;;6.50;2.80;;;18.70;92.20;;;;;;5043336;28;20043;-53
2022/12/31 11:55:02;;;;;;;5.05;2.90;;;18.50;91.90;;;;;;5054262;28;20033;-49
2022/12/31 11:57:37;;;;;;;6.95;3.28;;;17.90;94.50;;;;;;5061700;28;20056;-52
2022/12/31 12:00:39;;;;;;;6.57;3.10;;;17.60;94.70;;;;;;5048194;28;20033;-54
2022/12/31 12:03:06;;;;;;;5.15;3.10;;;17.30;96.10;;;;;;5036779;28;20114;-53
2022/12/31 12:05:33;;;;;;;12.20;3.58;;;17.00;97.30;;;;;;5040420;28;20052;-51
2022/12/31 12:08:00;;;;;;;4.95;3.78;;;16.80;97.70;;;;;;5041065;28;20025;-54
2022/12/31 12:10:51;;;;;;;3.08;2.40;;;16.50;98.40;;;;;;5059157;28;20052;-51
2022/12/31 12:13:16;;;;;;;5.05;2.90;;;16.40;97.50;;;;;;5060020;28;20036;-55
2022/12/31 12:15:47;;;;;;;2.70;2.30;;;16.10;98.60;;;;;;5060849;28;20037;-54
2022/12/31 12:18:32;;;;;;;3.72;2.53;;;15.90;99.90;;;;;;5060050;28;20462;-52
2022/12/31 12:21:07;;;;;;;4.15;3.13;;;15.80;99.90;;;;;;5048438;28;20036;-53
2022/12/31 12:23:33;;;;;;;8.20;3.55;;;15.60;99.90;;;;;;5047162;28;20104;-51
2022/12/31 12:25:59;;;;;;;7.72;3.95;;;15.50;99.90;;;;;;5041988;28;20116;-52
2022/12/31 12:28:27;;;;;;;6.85;3.70;;;15.50;99.90;;;;;;5042122;28;20029;-52
2022/12/31 12:31:00;;;;;;;10.60;3.42;;;15.40;99.90;;;;;;5051421;28;20518;-51
2022/12/31 12:33:28;;;;;;;5.90;3.47;;;15.50;99.90;;;;;;5042367;28;20107;-50
2022/12/31 12:36:08;;;;;;;6.15;4.32;;;15.50;99.90;;;;;;5061315;28;20545;-54
2022/12/31 12:38:34;;;;;;;4.35;3.70;;;15.50;99.90;;;;;;5061266;28;20032;-51
2022/12/31 12:41:03;;;;;;;7.35;3.83;;;15.60;99.90;;;;;;5051241;28;20043;-51
2022/12/31 12:43:34;;;;;;;4.13;3.47;;;15.60;99.90;;;;;;5041344;28;20028;-53
2022/12/31 12:46:22;;;;;;;4.38;3.30;;;15.80;99.90;;;;;;5059952;28;20039;-52
2022/12/31 12:48:54;;;;;;;4.43;3.10;;;16.10;99.90;;;;;;5060994;28;20031;-54
2022/12/31 12:51:57;;;;;;;4.25;2.90;;;16.90;99.90;;;;;;5041936;28;20028;-51
2022/12/31 12:54:38;;;;;;;3.70;2.90;;;18.00;99.90;;;;;;5040854;28;20376;-52
2022/12/31 12:57:21;;;;;;;9.75;3.10;;;18.80;99.90;;;;;;5040886;28;20033;-55
2022/12/31 13:00:17;;;;;;;6.13;3.38;;;19.90;98.00;;;;;;5040453;28;20488;-54
2022/12/31 13:03:19;;;;;;;7.22;2.95;;;20.10;95.70;;;;;;5041606;28;20323;-52
2022/12/31 13:05:45;;;;;;;4.80;2.65;;;20.90;95.00;;;;;;5040870;28;20115;-54
2022/12/31 13:08:53;;;;;;;4.95;3.20;;;21.30;93.30;;;;;;5041772;28;20112;-54
2022/12/31 13:11:38;;;;;;;1.95;1.70;;;21.70;91.70;;;;;;5040331;28;20041;-55
2022/12/31 13:14:47;;;;;;;2.55;1.90;;;21.90;91.40;;;;;;5041269;28;20159;-54
2022/12/31 13:17:28;;;;;;;3.28;2.35;;;22.50;90.00;;;;;;5040380;28;20049;-57
2022/12/31 13:20:07;;;;;;;2.97;1.85;;;23.00;87.60;;;;;;5040728;28;20660;-56
2022/12/31 13:22:45;;;;;;;2.70;2.13;;;23.10;85.70;;;;;;5039426;28;20037;-54
2022/12/31 13:25:29;;;;;;;4.28;3.00;;;22.40;87.40;;;;;;5039425;28;20520;-54
2022/12/31 13:28:01;;;;;;;5.82;2.97;;;21.60;89.60;;;;;;5041166;28;20056;-56
2022/12/31 13:30:37;;;;;;;4.80;3.70;;;20.60;91.50;;;;;;5039831;28;20125;-50
2022/12/31 13:33:25;;;;;;;6.25;3.80;;;19.60;93.40;;;;;;5039547;28;20118;-49
2022/12/31 13:36:00;;;;;;;9.35;6.35;;;18.70;95.40;;;;;;5039177;28;22026;-57
2022/12/31 13:38:31;;;;;;;27.35;11.98;;;17.80;97.60;;;;;;5039763;28;20104;-51